createdAt,value
2018-04-02T00:00:49.045Z,110.60
2018-04-02T00:01:49.055Z,113.90
2018-04-02T00:02:49.074Z,111.40
2018-04-02T00:03:49.079Z,115.50
2018-04-02T00:04:49.095Z,115.80
2018-04-02T00:05:49.109Z,107.80
2018-04-02T00:06:49.118Z,113.60
2018-04-02T00:07:49.137Z,109.20
2018-04-02T00:08:49.198Z,116.50
2018-04-02T00:09:49.159Z,114.00
2018-04-02T00:10:49.170Z,117.70
2018-04-02T00:11:49.184Z,118.90
2018-04-02T00:12:49.201Z,116.20
2018-04-02T00:13:49.208Z,119.30
2018-04-02T00:14:49.227Z,126.00
2018-04-02T00:15:49.287Z,127.80
2018-04-02T00:16:49.248Z,126.00
2018-04-02T00:17:49.264Z,127.60
2018-04-02T00:18:49.272Z,132.30
2018-04-02T00:19:49.285Z,135.50
2018-04-02T00:20:49.299Z,133.80
2018-04-02T00:21:49.311Z,129.00
2018-04-02T00:22:49.325Z,136.90
2018-04-02T00:23:49.435Z,135.20
2018-04-02T00:24:49.349Z,134.10
2018-04-02T00:25:49.362Z,127.40
2018-04-02T00:26:49.377Z,129.90
2018-04-02T00:27:49.390Z,127.40
2018-04-02T00:28:49.401Z,122.90
2018-04-02T00:29:49.413Z,129.40
2018-04-02T00:30:49.425Z,125.30
2018-04-02T00:31:49.437Z,131.40
2018-04-02T00:32:49.454Z,125.00
2018-04-02T00:33:49.462Z,129.60
2018-04-02T00:34:49.475Z,130.00
2018-04-02T00:35:49.485Z,127.20
2018-04-02T00:36:49.499Z,133.30
2018-04-02T00:37:49.512Z,127.10
2018-04-02T00:38:49.525Z,127.30
2018-04-02T00:39:49.538Z,122.80
2018-04-02T00:40:49.548Z,124.40
2018-04-02T00:41:49.563Z,128.20
2018-04-02T00:42:49.574Z,124.10
2018-04-02T00:43:49.588Z,128.00
2018-04-02T00:44:49.599Z,127.40
2018-04-02T00:45:49.613Z,128.40
2018-04-02T00:46:49.629Z,128.90
2018-04-02T00:47:49.688Z,129.80
2018-04-02T00:48:50.032Z,130.60
2018-04-02T00:49:49.661Z,132.50
2018-04-02T00:50:49.675Z,129.00
2018-04-02T00:51:49.693Z,127.00
2018-04-02T00:52:49.700Z,129.50
2018-04-02T00:53:49.813Z,129.10
2018-04-02T00:54:49.727Z,130.40
2018-04-02T00:55:49.740Z,133.50
2018-04-02T00:56:49.752Z,134.20
2018-04-02T00:57:49.766Z,133.50
2018-04-02T00:58:49.778Z,136.60
2018-04-02T00:59:49.792Z,137.70
2018-04-02T01:00:49.802Z,134.30
2018-04-02T01:01:49.817Z,135.30
2018-04-02T01:02:49.829Z,132.50
2018-04-02T01:03:49.870Z,134.40
2018-04-02T01:04:49.855Z,136.90
2018-04-02T01:05:49.869Z,135.50
2018-04-02T01:06:49.880Z,131.60
2018-04-02T01:07:49.900Z,130.10
2018-04-02T01:08:49.905Z,139.30
2018-04-02T01:09:49.917Z,138.90
2018-04-02T01:10:49.929Z,138.70
2018-04-02T01:11:49.949Z,136.30
2018-04-02T01:12:49.957Z,134.80
2018-04-02T01:13:49.968Z,132.90
2018-04-02T01:14:49.984Z,129.90
2018-04-02T01:15:49.993Z,134.20
2018-04-02T01:16:50.013Z,128.50
2018-04-02T01:17:50.019Z,136.40
2018-04-02T01:18:50.032Z,130.30
2018-04-02T01:19:50.047Z,130.40
2018-04-02T01:21:50.094Z,135.00
2018-04-02T01:22:50.082Z,133.30
2018-04-02T01:23:50.095Z,131.90
2018-04-02T01:24:50.111Z,131.90
2018-04-02T01:25:50.131Z,130.20
2018-04-02T01:26:50.133Z,129.10
2018-04-02T01:27:50.144Z,128.50
2018-04-02T01:28:50.165Z,134.80
2018-04-02T01:29:50.174Z,131.00
2018-04-02T01:30:50.185Z,126.60
2018-04-02T01:31:50.200Z,132.30
2018-04-02T01:32:50.212Z,130.00
2018-04-02T01:33:50.225Z,125.20
2018-04-02T01:34:50.289Z,112.50
2018-04-02T01:35:50.250Z,111.50
2018-04-02T01:36:50.260Z,113.90
2018-04-02T01:37:50.279Z,114.70
2018-04-02T01:38:50.290Z,115.60
2018-04-02T01:39:50.300Z,115.10
2018-04-02T01:40:50.317Z,116.20
2018-04-02T01:41:50.327Z,115.00
2018-04-02T01:42:50.350Z,120.60
2018-04-02T01:43:50.351Z,120.00
2018-04-02T01:44:50.366Z,116.40
2018-04-02T01:45:50.395Z,126.90
2018-04-02T01:46:50.393Z,122.10
2018-04-02T01:47:50.402Z,128.60
2018-04-02T01:48:50.416Z,123.20
2018-04-02T01:49:50.430Z,123.00
2018-04-02T01:50:50.444Z,128.00
2018-04-02T01:51:50.509Z,126.90
2018-04-02T01:52:50.467Z,127.40
2018-04-02T01:53:50.498Z,128.70
2018-04-02T01:54:50.493Z,121.30
2018-04-02T01:55:50.509Z,122.60
2018-04-02T01:56:50.525Z,124.10
2018-04-02T01:57:50.538Z,122.70
2018-04-02T01:58:50.543Z,127.30
2018-04-02T01:59:50.555Z,124.40
2018-04-02T02:00:50.573Z,123.70
2018-04-02T02:01:50.584Z,123.00
2018-04-02T02:02:50.596Z,125.30
2018-04-02T02:03:50.608Z,123.60
2018-04-02T02:04:50.620Z,122.80
2018-04-02T02:05:50.638Z,123.70
2018-04-02T02:06:50.646Z,125.70
2018-04-02T02:07:50.658Z,117.80
2018-04-02T02:08:50.672Z,112.30
2018-04-02T02:09:50.685Z,102.00
2018-04-02T02:10:50.697Z,101.80
2018-04-02T02:11:50.728Z,91.30
2018-04-02T02:12:50.722Z,86.90
2018-04-02T02:13:50.737Z,87.40
2018-04-02T02:14:50.749Z,86.00
2018-04-02T02:15:50.762Z,92.10
2018-04-02T02:16:50.779Z,85.60
2018-04-02T02:17:50.788Z,90.40
2018-04-02T02:18:50.807Z,87.80
2018-04-02T02:19:50.814Z,88.20
2018-04-02T02:20:50.824Z,88.10
2018-04-02T02:21:50.842Z,89.30
2018-04-02T02:22:50.904Z,90.40
2018-04-02T02:23:50.932Z,83.80
2018-04-02T02:24:50.882Z,86.70
2018-04-02T02:25:50.890Z,87.80
2018-04-02T02:26:50.905Z,85.70
2018-04-02T02:27:50.917Z,89.30
2018-04-02T02:28:50.929Z,86.90
2018-04-02T02:29:50.945Z,90.70
2018-04-02T02:30:50.957Z,87.80
2018-04-02T02:31:50.972Z,86.00
2018-04-02T02:32:50.991Z,82.80
2018-04-02T02:33:50.995Z,83.50
2018-04-02T02:34:51.014Z,85.00
2018-04-02T02:35:51.017Z,81.60
2018-04-02T02:36:51.031Z,82.30
2018-04-02T02:37:51.044Z,80.20
2018-04-02T02:38:51.056Z,80.60
2018-04-02T02:39:51.076Z,79.60
2018-04-02T02:40:51.083Z,79.50
2018-04-02T02:41:51.095Z,85.20
2018-04-02T02:42:51.109Z,81.10
2018-04-02T02:43:51.118Z,80.80
2018-04-02T02:44:51.133Z,82.00
2018-04-02T02:45:51.145Z,79.40
2018-04-02T02:46:51.159Z,82.10
2018-04-02T02:47:51.175Z,77.30
2018-04-02T02:48:51.184Z,78.50
2018-04-02T02:49:51.202Z,74.70
2018-04-02T02:50:51.210Z,73.00
2018-04-02T02:51:51.226Z,71.10
2018-04-02T02:52:51.240Z,73.50
2018-04-02T02:53:51.249Z,68.30
2018-04-02T02:54:51.266Z,72.10
2018-04-02T02:55:51.277Z,68.90
2018-04-02T02:56:51.381Z,66.00
2018-04-02T02:57:51.501Z,68.00
2018-04-02T02:58:51.312Z,67.10
2018-04-02T02:59:51.324Z,68.70
2018-04-02T03:00:51.338Z,68.30
2018-04-02T03:01:51.349Z,70.30
2018-04-02T03:02:51.365Z,70.60
2018-04-02T03:03:51.374Z,71.20
2018-04-02T03:04:51.390Z,70.50
2018-04-02T03:05:51.403Z,70.10
2018-04-02T03:06:51.415Z,71.10
2018-04-02T03:07:51.420Z,71.20
2018-04-02T03:08:51.432Z,70.60
2018-04-02T03:09:51.442Z,68.30
2018-04-02T03:10:51.457Z,68.90
2018-04-02T03:11:51.466Z,72.30
2018-04-02T03:12:51.480Z,73.40
2018-04-02T03:13:51.493Z,69.80
2018-04-02T03:14:51.504Z,71.10
2018-04-02T03:15:51.521Z,73.10
2018-04-02T03:16:51.532Z,76.40
2018-04-02T03:17:51.548Z,71.80
2018-04-02T03:18:51.556Z,73.20
2018-04-02T03:19:51.569Z,73.60
2018-04-02T03:20:51.581Z,75.90
2018-04-02T03:21:51.599Z,73.50
2018-04-02T03:22:51.608Z,76.80
2018-04-02T03:23:51.623Z,72.00
2018-04-02T03:24:51.633Z,73.50
2018-04-02T03:25:51.650Z,75.60
2018-04-02T03:26:51.660Z,78.80
2018-04-02T03:27:51.723Z,72.00
2018-04-02T03:28:51.682Z,78.70
2018-04-02T03:29:51.699Z,74.10
2018-04-02T03:30:51.710Z,75.00
2018-04-02T03:31:51.720Z,75.60
2018-04-02T03:32:51.736Z,74.70
2018-04-02T03:33:51.744Z,76.30
2018-04-02T03:34:51.758Z,73.10
2018-04-02T03:35:51.771Z,78.80
2018-04-02T03:36:51.782Z,77.80
2018-04-02T03:37:51.797Z,75.80
2018-04-02T03:38:51.815Z,76.10
2018-04-02T03:39:51.820Z,79.30
2018-04-02T03:40:51.834Z,74.70
2018-04-02T03:41:51.848Z,78.70
2018-04-02T03:42:51.864Z,85.60
2018-04-02T03:43:51.872Z,91.40
2018-04-02T03:44:51.890Z,87.80
2018-04-02T03:45:51.897Z,92.50
2018-04-02T03:46:51.918Z,94.60
2018-04-02T03:47:51.920Z,92.40
2018-04-02T03:48:51.939Z,94.10
2018-04-02T03:49:51.948Z,90.90
2018-04-02T03:50:51.959Z,97.30
2018-04-02T03:51:51.975Z,96.60
2018-04-02T03:52:51.986Z,94.20
2018-04-02T03:53:52.005Z,100.30
2018-04-02T03:54:52.010Z,95.50
2018-04-02T03:55:52.032Z,93.30
2018-04-02T03:56:52.081Z,93.80
2018-04-02T03:57:52.064Z,98.80
2018-04-02T03:58:52.067Z,97.00
2018-04-02T03:59:52.145Z,98.30
2018-04-02T04:00:52.087Z,97.90
2018-04-02T04:01:52.104Z,94.70
2018-04-02T04:02:52.120Z,96.10
2018-04-02T04:03:52.129Z,95.30
2018-04-02T04:04:52.135Z,89.50
2018-04-02T04:05:52.150Z,87.40
2018-04-02T04:06:52.161Z,93.50
2018-04-02T04:07:52.175Z,88.80
2018-04-02T04:08:52.185Z,94.60
2018-04-02T04:09:52.207Z,89.00
2018-04-02T04:10:52.216Z,93.70
2018-04-02T04:11:52.229Z,95.20
2018-04-02T04:12:52.235Z,88.90
2018-04-02T04:13:52.252Z,88.10
2018-04-02T04:14:52.265Z,86.20
2018-04-02T04:15:52.277Z,90.90
2018-04-02T04:16:52.288Z,85.90
2018-04-02T04:17:52.302Z,86.70
2018-04-02T04:18:52.312Z,89.70
2018-04-02T04:19:52.323Z,86.50
2018-04-02T04:20:52.382Z,88.60
2018-04-02T04:21:52.349Z,84.70
2018-04-02T04:22:52.362Z,90.00
2018-04-02T04:23:52.380Z,89.80
2018-04-02T04:24:52.392Z,86.40
2018-04-02T04:25:52.398Z,92.00
2018-04-02T04:26:52.411Z,92.20
2018-04-02T04:27:52.427Z,89.40
2018-04-02T04:28:52.438Z,94.40
2018-04-02T04:29:52.448Z,94.70
2018-04-02T04:30:52.578Z,97.10
2018-04-02T04:31:52.592Z,92.10
2018-04-02T04:32:52.489Z,86.20
2018-04-02T04:33:52.498Z,90.40
2018-04-02T04:34:52.513Z,94.80
2018-04-02T04:35:52.523Z,91.80
2018-04-02T04:36:52.542Z,94.10
2018-04-02T04:37:52.548Z,92.90
2018-04-02T04:38:52.561Z,90.40
2018-04-02T04:39:52.573Z,94.60
2018-04-02T04:40:52.584Z,87.90
2018-04-02T04:41:52.597Z,88.30
2018-04-02T04:42:52.609Z,86.60
2018-04-02T04:43:52.622Z,85.40
2018-04-02T04:44:52.634Z,89.70
2018-04-02T04:45:52.648Z,91.00
2018-04-02T04:46:52.659Z,91.30
2018-04-02T04:47:52.674Z,82.90
2018-04-02T04:48:52.738Z,82.70
2018-04-02T04:49:52.697Z,84.00
2018-04-02T04:50:52.715Z,85.50
2018-04-02T04:51:52.721Z,86.60
2018-04-02T04:52:52.736Z,87.90
2018-04-02T04:53:52.752Z,90.70
2018-04-02T04:54:52.759Z,98.00
2018-04-02T04:55:52.775Z,96.70
2018-04-02T04:56:52.783Z,104.40
2018-04-02T04:57:52.796Z,102.60
2018-04-02T04:58:52.818Z,108.20
2018-04-02T04:59:52.819Z,107.80
2018-04-02T05:00:52.834Z,106.20
2018-04-02T05:01:52.847Z,107.40
2018-04-02T05:02:52.910Z,107.80
2018-04-02T05:03:52.981Z,108.70
2018-04-02T05:04:52.881Z,107.00
2018-04-02T05:05:52.895Z,108.70
2018-04-02T05:06:52.906Z,111.80
2018-04-02T05:07:52.922Z,106.10
2018-04-02T05:08:52.930Z,109.00
2018-04-02T05:09:52.948Z,111.50
2018-04-02T05:10:52.956Z,105.10
2018-04-02T05:11:53.088Z,109.60
2018-04-02T05:12:52.981Z,107.70
2018-04-02T05:13:52.998Z,112.30
2018-04-02T05:14:53.108Z,115.80
2018-04-02T05:15:53.023Z,128.30
2018-04-02T05:16:53.029Z,127.90
2018-04-02T05:17:53.044Z,131.00
2018-04-02T05:18:53.058Z,137.20
2018-04-02T05:19:53.065Z,136.80
2018-04-02T05:20:53.079Z,138.00
2018-04-02T05:21:53.091Z,135.80
2018-04-02T05:22:53.153Z,137.70
2018-04-02T05:23:53.115Z,130.50
2018-04-02T05:24:53.127Z,135.50
2018-04-02T05:25:53.139Z,135.80
2018-04-02T05:26:53.155Z,140.60
2018-04-02T05:27:53.173Z,143.00
2018-04-02T05:28:53.175Z,134.90
2018-04-02T05:29:53.190Z,134.50
2018-04-02T05:30:53.204Z,136.70
2018-04-02T05:31:53.213Z,133.00
2018-04-02T05:32:53.224Z,137.80
2018-04-02T05:33:53.238Z,137.90
2018-04-02T05:34:53.253Z,137.80
2018-04-02T05:35:53.576Z,136.40
2018-04-02T05:36:53.279Z,145.40
2018-04-02T05:37:53.288Z,137.90
2018-04-02T05:38:53.301Z,133.40
2018-04-02T05:39:53.316Z,140.10
2018-04-02T05:40:53.324Z,132.30
2018-04-02T05:41:53.335Z,136.40
2018-04-02T05:42:53.349Z,132.20
2018-04-02T05:43:53.361Z,134.90
2018-04-02T05:44:53.375Z,136.80
2018-04-02T05:45:53.390Z,134.30
2018-04-02T05:46:53.397Z,138.70
2018-04-02T05:47:53.511Z,137.40
2018-04-02T05:48:53.425Z,141.40
2018-04-02T05:49:53.433Z,137.00
2018-04-02T05:50:53.446Z,146.60
2018-04-02T05:51:53.464Z,137.50
2018-04-02T05:52:53.470Z,136.50
2018-04-02T05:53:53.489Z,142.80
2018-04-02T05:54:53.494Z,145.50
2018-04-02T05:55:53.507Z,142.10
2018-04-02T05:56:53.526Z,142.40
2018-04-02T05:57:53.535Z,138.60
2018-04-02T05:58:53.543Z,142.80
2018-04-02T05:59:53.557Z,134.00
2018-04-02T06:00:53.569Z,133.50
2018-04-02T06:01:53.584Z,138.30
2018-04-02T06:02:53.617Z,147.80
2018-04-02T06:03:53.616Z,136.20
2018-04-02T06:04:53.621Z,138.50
2018-04-02T06:05:53.940Z,137.90
2018-04-02T06:06:53.768Z,137.40
2018-04-02T06:07:53.657Z,136.80
2018-04-02T06:08:53.668Z,141.80
2018-04-02T06:09:53.681Z,137.00
2018-04-02T06:10:53.693Z,136.80
2018-04-02T06:11:53.710Z,137.90
2018-04-02T06:12:53.722Z,141.20
2018-04-02T06:13:53.730Z,138.50
2018-04-02T06:14:53.744Z,135.10
2018-04-02T06:15:53.754Z,138.20
2018-04-02T06:16:53.767Z,138.80
2018-04-02T06:17:53.781Z,135.30
2018-04-02T06:18:53.795Z,140.70
2018-04-02T06:19:53.812Z,139.10
2018-04-02T06:20:53.820Z,137.40
2018-04-02T06:21:53.832Z,142.70
2018-04-02T06:22:53.841Z,143.50
2018-04-02T06:23:53.854Z,141.90
2018-04-02T06:24:53.866Z,143.20
2018-04-02T06:25:53.879Z,138.30
2018-04-02T06:26:53.897Z,137.40
2018-04-02T06:27:53.903Z,136.50
2018-04-02T06:28:53.914Z,133.70
2018-04-02T06:29:53.930Z,143.30
2018-04-02T06:30:53.944Z,144.20
2018-04-02T06:31:53.970Z,137.70
2018-04-02T06:32:53.965Z,139.40
2018-04-02T06:33:53.988Z,136.70
2018-04-02T06:34:53.993Z,129.10
2018-04-02T06:35:54.007Z,137.80
2018-04-02T06:36:54.058Z,139.30
2018-04-02T06:37:54.034Z,135.90
2018-04-02T06:38:54.117Z,136.10
2018-04-02T06:39:54.068Z,139.00
2018-04-02T06:40:54.084Z,141.00
2018-04-02T06:41:54.102Z,134.50
2018-04-02T06:42:54.094Z,135.50
2018-04-02T06:43:54.110Z,133.40
2018-04-02T06:44:54.119Z,132.90
2018-04-02T06:45:54.134Z,138.60
2018-04-02T06:46:54.147Z,130.70
2018-04-02T06:47:54.159Z,134.40
2018-04-02T06:48:54.172Z,132.20
2018-04-02T06:49:54.189Z,126.20
2018-04-02T06:50:54.206Z,135.00
2018-04-02T06:51:54.837Z,129.80
2018-04-02T06:52:54.260Z,131.40
2018-04-02T06:53:54.236Z,133.10
2018-04-02T06:54:54.249Z,129.20
2018-04-02T06:55:54.261Z,127.70
2018-04-02T06:56:54.280Z,130.20
2018-04-02T06:57:54.286Z,131.20
2018-04-02T06:58:54.307Z,131.30
2018-04-02T06:59:54.312Z,130.30
2018-04-02T07:00:54.344Z,131.60
2018-04-02T07:01:54.341Z,133.20
2018-04-02T07:02:54.354Z,122.10
2018-04-02T07:03:54.451Z,129.20
2018-04-02T07:04:54.383Z,129.70
2018-04-02T07:05:54.390Z,128.40
2018-04-02T07:06:54.413Z,124.70
2018-04-02T07:07:54.421Z,126.90
2018-04-02T07:08:54.478Z,127.40
2018-04-02T07:09:54.445Z,127.70
2018-04-02T07:10:54.490Z,125.40
2018-04-02T07:11:54.466Z,123.50
2018-04-02T07:12:54.525Z,122.50
2018-04-02T07:13:54.499Z,119.50
2018-04-02T07:14:54.507Z,118.50
2018-04-02T07:15:54.525Z,125.90
2018-04-02T07:16:54.532Z,120.50
2018-04-02T07:17:54.545Z,115.10
2018-04-02T07:18:54.560Z,119.30
2018-04-02T07:19:54.571Z,122.90
2018-04-02T07:20:54.583Z,114.30
2018-04-02T07:21:54.598Z,119.30
2018-04-02T07:22:54.612Z,121.40
2018-04-02T07:23:54.626Z,120.50
2018-04-02T07:24:54.636Z,118.20
2018-04-02T07:25:54.652Z,120.30
2018-04-02T07:26:54.661Z,124.00
2018-04-02T07:27:54.675Z,121.50
2018-04-02T07:28:54.687Z,119.70
2018-04-02T07:29:54.707Z,121.90
2018-04-02T07:30:54.712Z,118.40
2018-04-02T07:31:54.735Z,124.10
2018-04-02T07:32:54.753Z,122.70
2018-04-02T07:33:54.832Z,121.10
2018-04-02T07:34:54.765Z,120.70
2018-04-02T07:35:54.778Z,117.50
2018-04-02T07:36:54.789Z,120.70
2018-04-02T07:37:54.812Z,117.20
2018-04-02T07:38:54.818Z,117.20
2018-04-02T07:39:54.897Z,111.90
2018-04-02T07:40:54.864Z,118.10
2018-04-02T07:41:54.857Z,118.50
2018-04-02T07:42:54.872Z,116.10
2018-04-02T07:43:54.883Z,118.80
2018-04-02T07:44:54.909Z,111.50
2018-04-02T07:45:54.911Z,116.40
2018-04-02T07:46:54.924Z,111.50
2018-04-02T07:47:54.948Z,114.90
2018-04-02T07:48:54.951Z,109.60
2018-04-02T07:49:54.960Z,114.50
2018-04-02T07:50:54.969Z,105.90
2018-04-02T07:51:54.991Z,110.10
2018-04-02T07:52:54.997Z,108.40
2018-04-02T07:53:55.066Z,108.70
2018-04-02T07:54:55.024Z,106.00
2018-04-02T07:55:55.035Z,108.60
2018-04-02T07:56:55.056Z,111.40
2018-04-02T07:57:55.082Z,106.60
2018-04-02T07:58:55.078Z,102.30
2018-04-02T07:59:55.088Z,103.90
2018-04-02T08:00:55.110Z,106.10
2018-04-02T08:01:55.121Z,107.90
2018-04-02T08:02:55.268Z,106.20
2018-04-02T08:03:55.160Z,104.10
2018-04-02T08:04:55.159Z,103.30
2018-04-02T08:05:55.170Z,100.40
2018-04-02T08:06:55.182Z,100.50
2018-04-02T08:07:55.197Z,96.30
2018-04-02T08:08:55.213Z,93.30
2018-04-02T08:09:55.231Z,91.30
2018-04-02T08:10:55.247Z,91.30
2018-04-02T08:11:55.249Z,89.60
2018-04-02T08:12:55.263Z,94.20
2018-04-02T08:13:55.418Z,88.70
2018-04-02T08:14:55.301Z,89.70
2018-04-02T08:15:55.345Z,88.80
2018-04-02T08:16:55.322Z,87.30
2018-04-02T08:17:55.341Z,90.00
2018-04-02T08:18:55.349Z,88.60
2018-04-02T08:19:55.364Z,88.20
2018-04-02T08:20:55.374Z,87.50
2018-04-02T08:21:55.390Z,85.20
2018-04-02T08:22:55.484Z,84.90
2018-04-02T08:23:55.434Z,89.70
2018-04-02T08:24:55.434Z,86.20
2018-04-02T08:25:55.451Z,87.50
2018-04-02T08:26:55.455Z,88.50
2018-04-02T08:27:55.468Z,89.20
2018-04-02T08:28:55.485Z,87.50
2018-04-02T08:29:55.499Z,84.30
2018-04-02T08:30:55.511Z,88.20
2018-04-02T08:31:55.624Z,88.40
2018-04-02T08:32:55.545Z,86.20
2018-04-02T08:33:55.557Z,82.20
2018-04-02T08:34:55.571Z,88.20
2018-04-02T08:35:55.586Z,84.40
2018-04-02T08:36:55.599Z,83.60
2018-04-02T08:37:55.612Z,78.70
2018-04-02T08:38:55.678Z,81.90
2018-04-02T08:39:55.639Z,83.80
2018-04-02T08:40:55.651Z,81.30
2018-04-02T08:41:55.674Z,78.90
2018-04-02T08:42:55.687Z,78.60
2018-04-02T08:43:55.696Z,79.70
2018-04-02T08:44:55.714Z,81.10
2018-04-02T08:45:55.723Z,75.40
2018-04-02T08:46:55.737Z,79.40
2018-04-02T08:48:55.764Z,79.20
2018-04-02T08:49:55.781Z,75.70
2018-04-02T08:50:55.798Z,74.70
2018-04-02T08:51:55.809Z,73.90
2018-04-02T08:52:55.872Z,74.30
2018-04-02T08:53:55.836Z,75.90
2018-04-02T08:54:55.851Z,80.80
2018-04-02T08:55:55.865Z,75.50
2018-04-02T08:56:55.879Z,70.20
2018-04-02T08:57:55.905Z,70.40
2018-04-02T08:58:55.909Z,74.80
2018-04-02T08:59:55.936Z,72.40
2018-04-02T09:00:55.936Z,71.60
2018-04-02T09:01:55.948Z,70.10
2018-04-02T09:02:55.974Z,67.20
2018-04-02T09:03:55.985Z,68.20
2018-04-02T09:04:56.026Z,68.00
2018-04-02T09:05:56.009Z,68.20
2018-04-02T09:06:56.034Z,68.20
2018-04-02T09:07:56.036Z,63.30
2018-04-02T09:08:56.053Z,70.00
2018-04-02T09:09:56.066Z,65.70
2018-04-02T09:10:56.086Z,64.10
2018-04-02T09:11:56.095Z,65.60
2018-04-02T09:12:56.108Z,63.60
2018-04-02T09:13:56.126Z,63.50
2018-04-02T09:14:56.140Z,59.10
2018-04-02T09:15:56.152Z,63.00
2018-04-02T09:16:56.168Z,55.10
2018-04-02T09:17:56.182Z,54.20
2018-04-02T09:18:56.202Z,61.20
2018-04-02T09:19:56.216Z,58.40
2018-04-02T09:20:56.255Z,55.90
2018-04-02T09:21:56.241Z,54.80
2018-04-02T09:22:56.256Z,53.30
2018-04-02T09:23:56.267Z,57.60
2018-04-02T09:24:56.286Z,54.10
2018-04-02T09:25:56.298Z,54.30
2018-04-02T09:26:56.312Z,52.80
2018-04-02T09:27:56.327Z,54.00
2018-04-02T09:28:56.342Z,53.50
2018-04-02T09:29:56.365Z,47.10
2018-04-02T09:30:56.378Z,47.00
2018-04-02T09:31:56.400Z,46.50
2018-04-02T09:32:56.402Z,49.10
2018-04-02T09:33:56.415Z,50.70
2018-04-02T09:34:56.430Z,48.40
2018-04-02T09:35:56.451Z,47.20
2018-04-02T09:36:56.510Z,48.40
2018-04-02T09:37:56.505Z,48.60
2018-04-02T09:38:56.490Z,46.00
2018-04-02T09:39:56.505Z,46.40
2018-04-02T09:40:56.518Z,45.80
2018-04-02T09:41:56.535Z,46.60
2018-04-02T09:42:56.560Z,45.90
2018-04-02T09:43:56.562Z,44.90
2018-04-02T09:44:56.577Z,43.60
2018-04-02T09:45:56.592Z,46.90
2018-04-02T09:46:56.616Z,45.70
2018-04-02T09:47:56.623Z,48.70
2018-04-02T09:48:56.636Z,47.50
2018-04-02T09:49:56.656Z,45.20
2018-04-02T09:50:56.667Z,43.30
2018-04-02T09:51:56.684Z,40.00
2018-04-02T09:52:56.702Z,39.20
2018-04-02T09:53:57.022Z,37.50
2018-04-02T09:54:56.729Z,39.70
2018-04-02T09:55:56.745Z,38.30
2018-04-02T09:56:56.761Z,35.30
2018-04-02T09:57:56.777Z,35.30
2018-04-02T09:58:56.789Z,33.10
2018-04-02T09:59:56.804Z,34.30
2018-04-02T10:00:56.821Z,36.10
2018-04-02T10:01:56.833Z,37.40
2018-04-02T10:02:56.864Z,36.20
2018-04-02T10:03:56.864Z,38.70
2018-04-02T10:04:56.999Z,35.70
2018-04-02T10:05:56.899Z,39.20
2018-04-02T10:06:56.915Z,36.90
2018-04-02T10:07:56.925Z,36.20
2018-04-02T10:08:56.947Z,36.10
2018-04-02T10:09:56.997Z,39.50
2018-04-02T10:10:56.974Z,38.10
2018-04-02T10:11:56.984Z,38.20
2018-04-02T10:12:57.001Z,39.30
2018-04-02T10:13:57.017Z,35.70
2018-04-02T10:14:57.037Z,34.10
2018-04-02T10:15:57.048Z,32.60
2018-04-02T10:16:57.062Z,34.30
2018-04-02T10:17:57.082Z,36.10
2018-04-02T10:18:57.095Z,35.40
2018-04-02T10:19:57.111Z,35.40
2018-04-02T10:20:57.121Z,34.00
2018-04-02T10:21:57.141Z,35.10
2018-04-02T10:22:57.151Z,35.80
2018-04-02T10:23:57.269Z,37.10
2018-04-02T10:24:57.182Z,35.20
2018-04-02T10:25:57.199Z,36.10
2018-04-02T10:26:57.213Z,34.60
2018-04-02T10:27:57.245Z,35.60
2018-04-02T10:28:57.244Z,37.60
2018-04-02T10:29:57.312Z,36.80
2018-04-02T10:30:57.276Z,36.70
2018-04-02T10:31:57.291Z,37.50
2018-04-02T10:32:57.306Z,36.40
2018-04-02T10:33:57.321Z,36.70
2018-04-02T10:34:57.350Z,37.90
2018-04-02T10:35:57.354Z,35.30
2018-04-02T10:36:57.367Z,38.60
2018-04-02T10:37:57.382Z,36.10
2018-04-02T10:38:57.498Z,39.30
2018-04-02T10:39:57.414Z,36.80
2018-04-02T10:40:57.429Z,36.40
2018-04-02T10:41:57.444Z,39.00
2018-04-02T10:42:57.467Z,35.60
2018-04-02T10:43:57.522Z,38.60
2018-04-02T10:44:57.492Z,35.80
2018-04-02T10:45:57.505Z,36.50
2018-04-02T10:46:57.521Z,38.00
2018-04-02T10:47:57.537Z,34.90
2018-04-02T10:48:57.547Z,36.40
2018-04-02T10:49:57.578Z,38.40
2018-04-02T10:50:57.587Z,35.30
2018-04-02T10:51:57.607Z,33.60
2018-04-02T10:52:57.611Z,32.80
2018-04-02T10:53:57.646Z,35.50
2018-04-02T10:54:57.658Z,36.10
2018-04-02T10:55:57.658Z,33.20
2018-04-02T10:56:57.673Z,35.00
2018-04-02T10:57:57.687Z,35.20
2018-04-02T10:58:57.714Z,33.10
2018-04-02T10:59:57.742Z,34.10
2018-04-02T11:00:57.770Z,34.70
2018-04-02T11:01:57.750Z,33.10
2018-04-02T11:02:57.766Z,32.50
2018-04-02T11:03:57.788Z,32.10
2018-04-02T11:04:57.820Z,29.90
2018-04-02T11:05:57.813Z,30.60
2018-04-02T11:06:57.822Z,29.50
2018-04-02T11:07:57.835Z,31.80
2018-04-02T11:08:57.855Z,30.40
2018-04-02T11:09:57.874Z,32.20
2018-04-02T11:10:57.881Z,30.60
2018-04-02T11:11:57.914Z,31.00
2018-04-02T11:12:57.916Z,32.30
2018-04-02T11:13:57.928Z,33.70
2018-04-02T11:14:57.944Z,33.80
2018-04-02T11:15:57.959Z,30.30
2018-04-02T11:16:57.976Z,32.30
2018-04-02T11:17:58.020Z,29.70
2018-04-02T11:18:58.008Z,31.40
2018-04-02T11:19:58.022Z,30.70
2018-04-02T11:20:58.040Z,31.00
2018-04-02T11:21:58.054Z,30.40
2018-04-02T11:22:58.068Z,31.00
2018-04-02T11:23:58.084Z,29.30
2018-04-02T11:24:58.101Z,29.40
2018-04-02T11:25:58.116Z,30.10
2018-04-02T11:26:58.133Z,27.80
2018-04-02T11:27:58.154Z,28.50
2018-04-02T11:28:58.170Z,27.30
2018-04-02T11:29:58.179Z,28.40
2018-04-02T11:30:58.193Z,29.70
2018-04-02T11:31:58.259Z,30.50
2018-04-02T11:32:58.225Z,29.70
2018-04-02T11:33:58.246Z,29.70
2018-04-02T11:34:58.261Z,28.80
2018-04-02T11:35:58.274Z,28.40
2018-04-02T11:36:58.288Z,27.30
2018-04-02T11:37:58.312Z,29.30
2018-04-02T11:38:58.320Z,28.10
2018-04-02T11:39:58.334Z,26.70
2018-04-02T11:40:58.351Z,29.30
2018-04-02T11:41:58.366Z,27.40
2018-04-02T11:42:58.567Z,26.30
2018-04-02T11:43:58.527Z,28.80
2018-04-02T11:44:58.421Z,27.30
2018-04-02T11:45:58.432Z,29.50
2018-04-02T11:46:58.448Z,28.20
2018-04-02T11:47:58.459Z,28.30
2018-04-02T11:48:58.475Z,26.80
2018-04-02T11:49:58.494Z,28.40
2018-04-02T11:50:58.506Z,24.90
2018-04-02T11:51:58.522Z,24.60
2018-04-02T11:52:58.537Z,24.00
2018-04-02T11:53:58.557Z,25.10
2018-04-02T11:54:58.570Z,26.60
2018-04-02T11:55:58.584Z,25.60
2018-04-02T11:56:58.601Z,22.80
2018-04-02T11:57:58.617Z,21.80
2018-04-02T11:58:58.631Z,22.00
2018-04-02T11:59:58.646Z,22.20
2018-04-02T12:00:58.661Z,25.60
2018-04-02T12:01:58.683Z,23.50
2018-04-02T12:02:58.703Z,23.50
2018-04-02T12:03:58.730Z,27.40
2018-04-02T12:04:58.730Z,24.20
2018-04-02T12:05:58.754Z,24.80
2018-04-02T12:06:58.770Z,25.50
2018-04-02T12:07:58.772Z,22.90
2018-04-02T12:08:58.787Z,24.10
2018-04-02T12:09:58.805Z,23.10
2018-04-02T12:10:58.822Z,24.20
2018-04-02T12:11:58.834Z,21.50
2018-04-02T12:12:58.849Z,20.10
2018-04-02T12:13:58.876Z,17.50
2018-04-02T12:14:58.882Z,18.00
2018-04-02T12:15:58.999Z,19.00
2018-04-02T12:16:58.912Z,13.80
2018-04-02T12:17:58.932Z,15.10
2018-04-02T12:18:58.950Z,13.60
2018-04-02T12:19:58.958Z,9.90
2018-04-02T12:20:59.005Z,9.20
2018-04-02T12:21:58.990Z,7.30
2018-04-02T12:22:59.011Z,9.10
2018-04-02T12:23:59.021Z,8.60
2018-04-02T12:24:59.038Z,8.20
2018-04-02T12:25:59.057Z,8.80
2018-04-02T12:26:59.073Z,6.90
2018-04-02T12:27:59.084Z,7.80
2018-04-02T12:28:59.128Z,6.90
2018-04-02T12:29:59.121Z,7.60
2018-04-02T12:30:59.137Z,10.60
2018-04-02T12:31:59.149Z,8.30
2018-04-02T12:32:59.166Z,9.80
2018-04-02T12:33:59.179Z,9.40
2018-04-02T12:34:59.195Z,8.80
2018-04-02T12:35:59.215Z,8.90
2018-04-02T12:36:59.256Z,8.50
2018-04-02T12:37:59.246Z,10.40
2018-04-02T12:38:59.258Z,9.60
2018-04-02T12:39:59.273Z,9.10
2018-04-02T12:40:59.288Z,9.60
2018-04-02T12:41:59.306Z,8.70
2018-04-02T12:42:59.423Z,9.20
2018-04-02T12:43:59.338Z,8.80
2018-04-02T12:44:59.358Z,8.10
2018-04-02T12:45:59.372Z,8.30